createdAt,value
2018-10-16T00:00:29.551Z,1003.5
2018-10-16T00:01:30.935Z,1003.5
2018-10-16T00:02:32.329Z,1003.5
2018-10-16T00:03:33.718Z,1003.5
2018-10-16T00:04:35.110Z,1003.6
2018-10-16T00:05:36.499Z,1003.5
2018-10-16T00:06:37.888Z,1003.5
2018-10-16T00:07:39.276Z,1003.5
2018-10-16T00:08:40.663Z,1003.5
2018-10-16T00:09:42.059Z,1003.5
2018-10-16T00:10:43.440Z,1003.6
2018-10-16T00:11:44.831Z,1003.5
2018-10-16T00:12:46.219Z,1003.6
2018-10-16T00:13:47.611Z,1003.5
2018-10-16T00:14:49.000Z,1003.6
2018-10-16T00:15:50.391Z,1003.6
2018-10-16T00:16:51.781Z,1003.6
2018-10-16T00:17:53.172Z,1003.6
2018-10-16T00:18:54.563Z,1003.6
2018-10-16T00:19:55.967Z,1003.6
2018-10-16T00:20:57.364Z,1003.6
2018-10-16T00:21:58.758Z,1003.6
2018-10-16T00:23:00.140Z,1003.6
2018-10-16T00:24:01.531Z,1003.5
2018-10-16T00:25:02.927Z,1003.5
2018-10-16T00:26:04.315Z,1003.5
2018-10-16T00:27:05.703Z,1003.6
2018-10-16T00:28:07.095Z,1003.6
2018-10-16T00:29:08.483Z,1003.6
2018-10-16T00:30:09.872Z,1003.6
2018-10-16T00:31:11.263Z,1003.6
2018-10-16T00:32:12.650Z,1003.6
2018-10-16T00:33:14.044Z,1003.6
2018-10-16T00:34:15.435Z,1003.6
2018-10-16T00:35:16.824Z,1003.6
2018-10-16T00:36:18.214Z,1003.6
2018-10-16T00:37:19.601Z,1003.6
2018-10-16T00:38:20.993Z,1003.6
2018-10-16T00:39:22.379Z,1003.6
2018-10-16T00:40:23.765Z,1003.6
2018-10-16T00:41:25.267Z,1003.6
2018-10-16T00:42:26.684Z,1003.7
2018-10-16T00:43:28.077Z,1003.7
2018-10-16T00:44:29.468Z,1003.7
2018-10-16T00:45:30.866Z,1003.7
2018-10-16T00:46:32.253Z,1003.7
2018-10-16T00:47:33.641Z,1003.6
2018-10-16T00:48:35.036Z,1003.6
2018-10-16T00:49:36.428Z,1003.7
2018-10-16T00:50:37.817Z,1003.6
2018-10-16T00:51:39.239Z,1003.7
2018-10-16T00:52:40.627Z,1003.7
2018-10-16T00:53:42.020Z,1003.7
2018-10-16T00:54:43.443Z,1003.7
2018-10-16T00:55:44.806Z,1003.7
2018-10-16T00:56:46.199Z,1003.7
2018-10-16T00:57:47.588Z,1003.8
2018-10-16T00:58:48.981Z,1003.7
2018-10-16T00:59:50.369Z,1003.8
2018-10-16T01:00:51.758Z,1003.7
2018-10-16T01:01:53.155Z,1003.8
2018-10-16T01:02:54.548Z,1003.8
2018-10-16T01:03:55.941Z,1003.8
2018-10-16T01:04:57.336Z,1003.9
2018-10-16T01:05:58.721Z,1003.8
2018-10-16T01:07:00.109Z,1003.8
2018-10-16T01:08:01.503Z,1003.9
2018-10-16T01:09:02.904Z,1003.8
2018-10-16T01:10:04.300Z,1003.9
2018-10-16T01:11:05.690Z,1003.9
2018-10-16T01:12:07.081Z,1003.9
2018-10-16T01:13:08.519Z,1003.8
2018-10-16T01:14:09.896Z,1003.9
2018-10-16T01:15:11.291Z,1003.9
2018-10-16T01:16:12.690Z,1003.9
2018-10-16T01:17:14.077Z,1004.0
2018-10-16T01:18:15.473Z,1004.0
2018-10-16T01:19:16.862Z,1004.0
2018-10-16T01:20:18.255Z,1004.0
2018-10-16T01:21:19.644Z,1004.0
2018-10-16T01:22:21.034Z,1004.0
2018-10-16T01:23:22.423Z,1004.0
2018-10-16T01:24:23.813Z,1004.0
2018-10-16T01:25:25.204Z,1004.0
2018-10-16T01:26:26.590Z,1004.0
2018-10-16T01:27:28.074Z,1004.0
2018-10-16T01:28:29.470Z,1004.0
2018-10-16T01:29:30.861Z,1004.1
2018-10-16T01:30:32.249Z,1004.1
2018-10-16T01:31:33.642Z,1004.1
2018-10-16T01:32:35.028Z,1004.1
2018-10-16T01:33:36.416Z,1004.1
2018-10-16T01:34:37.805Z,1004.1
2018-10-16T01:35:39.189Z,1004.1
2018-10-16T01:36:40.583Z,1004.1
2018-10-16T01:37:41.974Z,1004.1
2018-10-16T01:38:43.368Z,1004.1
2018-10-16T01:39:44.759Z,1004.1
2018-10-16T01:40:46.144Z,1004.1
2018-10-16T01:41:47.535Z,1004.1
2018-10-16T01:42:48.927Z,1004.1
2018-10-16T01:43:50.316Z,1004.1
2018-10-16T01:44:51.704Z,1004.1
2018-10-16T01:45:53.095Z,1004.1
2018-10-16T01:46:54.487Z,1004.1
2018-10-16T01:47:55.874Z,1004.1
2018-10-16T01:48:57.262Z,1004.1
2018-10-16T01:49:58.653Z,1004.1
2018-10-16T01:51:00.039Z,1004.1
2018-10-16T01:52:01.480Z,1004.1
2018-10-16T01:53:02.872Z,1004.1
2018-10-16T01:54:04.270Z,1004.0
2018-10-16T01:55:05.675Z,1004.0
2018-10-16T01:56:07.068Z,1004.1
2018-10-16T01:57:08.458Z,1004.1
2018-10-16T01:58:09.847Z,1004.1
2018-10-16T01:59:11.286Z,1004.1
2018-10-16T02:00:12.675Z,1004.1
2018-10-16T02:01:14.066Z,1004.1
2018-10-16T02:02:15.452Z,1004.1
2018-10-16T02:03:16.842Z,1004.1
2018-10-16T02:04:18.231Z,1004.1
2018-10-16T02:05:19.620Z,1004.1
2018-10-16T02:06:21.010Z,1004.1
2018-10-16T02:07:22.401Z,1004.1
2018-10-16T02:08:23.791Z,1004.1
2018-10-16T02:09:25.180Z,1004.1
2018-10-16T02:10:26.573Z,1004.1
2018-10-16T02:11:27.964Z,1004.1
2018-10-16T02:12:29.357Z,1004.1
2018-10-16T02:13:30.854Z,1004.1
2018-10-16T02:14:32.402Z,1004.1
2018-10-16T02:15:33.741Z,1004.1
2018-10-16T02:16:35.129Z,1004.2
2018-10-16T02:17:36.517Z,1004.2
2018-10-16T02:18:37.908Z,1004.2
2018-10-16T02:19:39.301Z,1004.1
2018-10-16T02:20:40.695Z,1004.1
2018-10-16T02:21:42.086Z,1004.1
2018-10-16T02:22:43.483Z,1004.1
2018-10-16T02:23:44.871Z,1004.1
2018-10-16T02:24:46.259Z,1004.1
2018-10-16T02:25:47.647Z,1004.1
2018-10-16T02:26:49.036Z,1004.1
2018-10-16T02:27:50.424Z,1004.1
2018-10-16T02:28:51.813Z,1004.1
2018-10-16T02:29:53.205Z,1004.1
2018-10-16T02:30:54.600Z,1004.1
2018-10-16T02:31:55.984Z,1004.2
2018-10-16T02:32:57.384Z,1004.2
2018-10-16T02:33:58.769Z,1004.2
2018-10-16T02:35:00.159Z,1004.2
2018-10-16T02:36:01.552Z,1004.1
2018-10-16T02:37:02.943Z,1004.1
2018-10-16T02:38:04.331Z,1004.2
2018-10-16T02:39:05.724Z,1004.2
2018-10-16T02:40:07.124Z,1004.2
2018-10-16T02:41:08.507Z,1004.2
2018-10-16T02:42:09.900Z,1004.2
2018-10-16T02:43:11.296Z,1004.2
2018-10-16T02:44:12.687Z,1004.2
2018-10-16T02:45:14.075Z,1004.2
2018-10-16T02:46:15.475Z,1004.1
2018-10-16T02:47:16.851Z,1004.2
2018-10-16T02:48:18.238Z,1004.2
2018-10-16T02:49:19.630Z,1004.2
2018-10-16T02:50:21.017Z,1004.2
2018-10-16T02:51:22.411Z,1004.1
2018-10-16T02:52:23.800Z,1004.2
2018-10-16T02:53:25.209Z,1004.1
2018-10-16T02:54:26.603Z,1004.2
2018-10-16T02:55:27.981Z,1004.2
2018-10-16T02:56:29.371Z,1004.2
2018-10-16T02:57:30.762Z,1004.2
2018-10-16T02:58:32.158Z,1004.2
2018-10-16T02:59:33.549Z,1004.2
2018-10-16T03:00:35.028Z,1004.2
2018-10-16T03:01:36.429Z,1004.2
2018-10-16T03:02:37.820Z,1004.2
2018-10-16T03:03:39.217Z,1004.2
2018-10-16T03:04:40.607Z,1004.2
2018-10-16T03:05:41.997Z,1004.2
2018-10-16T03:06:43.381Z,1004.2
2018-10-16T03:07:44.775Z,1004.2
2018-10-16T03:08:46.161Z,1004.3
2018-10-16T03:09:47.556Z,1004.3
2018-10-16T03:10:48.958Z,1004.3
2018-10-16T03:11:50.346Z,1004.3
2018-10-16T03:12:51.737Z,1004.2
2018-10-16T03:13:53.121Z,1004.2
2018-10-16T03:14:54.509Z,1004.2
2018-10-16T03:15:55.901Z,1004.2
2018-10-16T03:16:57.295Z,1004.2
2018-10-16T03:17:58.686Z,1004.2
2018-10-16T03:19:00.079Z,1004.2
2018-10-16T03:20:01.477Z,1004.2
2018-10-16T03:21:02.864Z,1004.2
2018-10-16T03:22:04.255Z,1004.2
2018-10-16T03:23:05.643Z,1004.2
2018-10-16T03:24:07.034Z,1004.2
2018-10-16T03:25:08.431Z,1004.2
2018-10-16T03:26:09.822Z,1004.2
2018-10-16T03:27:11.211Z,1004.2
2018-10-16T03:28:12.599Z,1004.2
2018-10-16T03:29:13.989Z,1004.2
2018-10-16T03:30:15.378Z,1004.2
2018-10-16T03:31:16.770Z,1004.3
2018-10-16T03:32:18.156Z,1004.3
2018-10-16T03:33:19.546Z,1004.3
2018-10-16T03:34:20.937Z,1004.3
2018-10-16T03:35:22.324Z,1004.3
2018-10-16T03:36:23.717Z,1004.3
2018-10-16T03:37:25.115Z,1004.3
2018-10-16T03:38:26.499Z,1004.4
2018-10-16T03:39:27.892Z,1004.4
2018-10-16T03:40:29.281Z,1004.3
2018-10-16T03:41:30.674Z,1004.4
2018-10-16T03:42:32.060Z,1004.4
2018-10-16T03:43:33.452Z,1004.4
2018-10-16T03:44:34.847Z,1004.4
2018-10-16T03:45:36.233Z,1004.4
2018-10-16T03:46:37.730Z,1004.4
2018-10-16T03:47:39.238Z,1004.4
2018-10-16T03:48:40.845Z,1004.4
2018-10-16T03:49:42.239Z,1004.4
2018-10-16T03:50:43.809Z,1004.4
2018-10-16T03:51:45.341Z,1004.4
2018-10-16T03:52:46.726Z,1004.4
2018-10-16T03:53:48.110Z,1004.4
2018-10-16T03:54:49.501Z,1004.4
2018-10-16T03:55:50.891Z,1004.4
2018-10-16T03:56:52.285Z,1004.4
2018-10-16T03:57:53.678Z,1004.4
2018-10-16T03:58:55.070Z,1004.4
2018-10-16T03:59:56.457Z,1004.4
2018-10-16T04:00:57.849Z,1004.4
2018-10-16T04:01:59.234Z,1004.4
2018-10-16T04:03:00.625Z,1004.4
2018-10-16T04:04:02.008Z,1004.4
2018-10-16T04:05:03.399Z,1004.4
2018-10-16T04:06:04.784Z,1004.5
2018-10-16T04:07:06.176Z,1004.4
2018-10-16T04:08:07.574Z,1004.4
2018-10-16T04:09:08.956Z,1004.4
2018-10-16T04:10:10.358Z,1004.5
2018-10-16T04:11:11.747Z,1004.5
2018-10-16T04:12:13.137Z,1004.5
2018-10-16T04:13:14.525Z,1004.4
2018-10-16T04:14:15.911Z,1004.4
2018-10-16T04:15:17.310Z,1004.4
2018-10-16T04:16:18.694Z,1004.4
2018-10-16T04:18:12.099Z,1004.4
2018-10-16T04:19:13.486Z,1004.5
2018-10-16T04:20:35.063Z,1004.5
2018-10-16T04:21:36.450Z,1004.5
2018-10-16T04:22:59.045Z,1004.5
2018-10-16T04:24:00.420Z,1004.5
2018-10-16T04:25:01.808Z,1004.5
2018-10-16T04:26:03.197Z,1004.5
2018-10-16T04:27:04.581Z,1004.5
2018-10-16T04:28:05.969Z,1004.5
2018-10-16T04:29:07.368Z,1004.5
2018-10-16T04:30:08.790Z,1004.5
2018-10-16T04:31:10.258Z,1004.5
2018-10-16T04:32:11.642Z,1004.5
2018-10-16T04:33:13.027Z,1004.5
2018-10-16T04:34:14.418Z,1004.5
2018-10-16T04:35:15.811Z,1004.5
2018-10-16T04:36:17.203Z,1004.5
2018-10-16T04:37:18.595Z,1004.6
2018-10-16T04:38:19.983Z,1004.5
2018-10-16T04:39:21.370Z,1004.5
2018-10-16T04:40:22.758Z,1004.6
2018-10-16T04:41:24.156Z,1004.5
2018-10-16T04:42:25.541Z,1004.5
2018-10-16T04:43:26.934Z,1004.5
2018-10-16T04:44:28.325Z,1004.6
2018-10-16T04:45:29.718Z,1004.6
2018-10-16T04:46:31.108Z,1004.5
2018-10-16T04:47:32.527Z,1004.5
2018-10-16T04:48:33.888Z,1004.5
2018-10-16T04:49:35.274Z,1004.6
2018-10-16T04:50:36.664Z,1004.6
2018-10-16T04:51:38.054Z,1004.6
2018-10-16T04:52:39.442Z,1004.6
2018-10-16T04:53:40.830Z,1004.5
2018-10-16T04:54:42.214Z,1004.6
2018-10-16T04:55:43.609Z,1004.5
2018-10-16T04:56:45.001Z,1004.5
2018-10-16T04:57:46.391Z,1004.6
2018-10-16T04:58:47.780Z,1004.5
2018-10-16T04:59:49.170Z,1004.6
2018-10-16T05:00:50.553Z,1004.6
2018-10-16T05:01:51.939Z,1004.6
2018-10-16T05:02:53.327Z,1004.6
2018-10-16T05:03:54.752Z,1004.6
2018-10-16T05:04:56.106Z,1004.6
2018-10-16T05:05:57.497Z,1004.6
2018-10-16T05:06:58.881Z,1004.6
2018-10-16T05:08:00.268Z,1004.6
2018-10-16T05:09:01.658Z,1004.7
2018-10-16T05:10:03.049Z,1004.6
2018-10-16T05:11:04.440Z,1004.6
2018-10-16T05:12:05.834Z,1004.7
2018-10-16T05:13:07.308Z,1004.7
2018-10-16T05:14:08.621Z,1004.7
2018-10-16T05:15:10.009Z,1004.7
2018-10-16T05:16:11.396Z,1004.7
2018-10-16T05:17:12.822Z,1004.7
2018-10-16T05:18:14.228Z,1004.7
2018-10-16T05:19:15.748Z,1004.6
2018-10-16T05:20:17.015Z,1004.7
2018-10-16T05:21:18.401Z,1004.7
2018-10-16T05:22:19.788Z,1004.7
2018-10-16T05:23:21.177Z,1004.7
2018-10-16T05:24:22.571Z,1004.7
2018-10-16T05:25:23.959Z,1004.7
2018-10-16T05:26:25.347Z,1004.7
2018-10-16T05:27:26.738Z,1004.7
2018-10-16T05:28:28.125Z,1004.7
2018-10-16T05:29:29.509Z,1004.7
2018-10-16T05:30:30.897Z,1004.8
2018-10-16T05:31:32.332Z,1004.8
2018-10-16T05:32:33.667Z,1004.8
2018-10-16T05:33:35.057Z,1004.8
2018-10-16T05:34:36.448Z,1004.8
2018-10-16T05:35:37.837Z,1004.9
2018-10-16T05:36:39.223Z,1004.8
2018-10-16T05:37:40.610Z,1004.8
2018-10-16T05:38:42.043Z,1004.7
2018-10-16T05:39:43.435Z,1004.8
2018-10-16T05:40:44.830Z,1004.8
2018-10-16T05:41:46.256Z,1004.8
2018-10-16T05:42:47.641Z,1004.8
2018-10-16T05:43:49.027Z,1004.8
2018-10-16T05:44:50.416Z,1004.8
2018-10-16T05:45:51.805Z,1004.9
2018-10-16T05:46:53.196Z,1004.9
2018-10-16T05:47:54.592Z,1004.9
2018-10-16T05:48:55.987Z,1004.9
2018-10-16T05:49:57.372Z,1004.9
2018-10-16T05:50:58.756Z,1005.0
2018-10-16T05:52:00.146Z,1005.0
2018-10-16T05:53:01.537Z,1005.0
2018-10-16T05:54:02.933Z,1005.0
2018-10-16T05:55:04.324Z,1005.0
2018-10-16T05:56:05.711Z,1005.0
2018-10-16T05:57:07.100Z,1005.0
2018-10-16T05:58:08.489Z,1005.0
2018-10-16T05:59:09.881Z,1005.0
2018-10-16T06:00:11.277Z,1005.0
2018-10-16T06:01:12.665Z,1005.0
2018-10-16T06:02:14.053Z,1005.0
2018-10-16T06:03:15.444Z,1005.0
2018-10-16T06:04:17.040Z,1005.0
2018-10-16T06:05:18.479Z,1005.0
2018-10-16T06:06:19.870Z,1005.0
2018-10-16T06:07:21.263Z,1005.1
2018-10-16T06:08:22.650Z,1005.0
2018-10-16T06:09:24.044Z,1005.1
2018-10-16T06:10:25.433Z,1005.1
2018-10-16T06:11:26.820Z,1005.1
2018-10-16T06:12:28.208Z,1005.2
2018-10-16T06:13:29.600Z,1005.1
2018-10-16T06:14:30.986Z,1005.1
2018-10-16T06:15:32.378Z,1005.2
2018-10-16T06:16:33.772Z,1005.2
2018-10-16T06:17:35.165Z,1005.2
2018-10-16T06:18:36.556Z,1005.2
2018-10-16T06:19:37.937Z,1005.2
2018-10-16T06:20:39.327Z,1005.2
2018-10-16T06:21:40.716Z,1005.2
2018-10-16T06:22:42.108Z,1005.2
2018-10-16T06:23:43.497Z,1005.3
2018-10-16T06:24:44.892Z,1005.3
2018-10-16T06:25:46.282Z,1005.3
2018-10-16T06:26:47.670Z,1005.3
2018-10-16T06:27:49.067Z,1005.3
2018-10-16T06:28:50.450Z,1005.3
2018-10-16T06:29:51.842Z,1005.4
2018-10-16T06:30:53.233Z,1005.3
2018-10-16T06:31:54.628Z,1005.3
2018-10-16T06:32:56.020Z,1005.3
2018-10-16T06:33:57.410Z,1005.3
2018-10-16T06:34:58.800Z,1005.3
2018-10-16T06:36:00.193Z,1005.3
2018-10-16T06:37:01.584Z,1005.3
2018-10-16T06:38:02.976Z,1005.2
2018-10-16T06:39:04.372Z,1005.2
2018-10-16T06:40:05.758Z,1005.3
2018-10-16T06:41:07.190Z,1005.2
2018-10-16T06:42:08.542Z,1005.3
2018-10-16T06:43:09.932Z,1005.3
2018-10-16T06:44:11.325Z,1005.3
2018-10-16T06:45:12.723Z,1005.3
2018-10-16T06:46:14.116Z,1005.3
2018-10-16T06:47:15.522Z,1005.3
2018-10-16T06:48:17.011Z,1005.3
2018-10-16T06:49:18.289Z,1005.2
2018-10-16T06:50:19.726Z,1005.2
2018-10-16T06:51:21.159Z,1005.2
2018-10-16T06:52:22.554Z,1005.2
2018-10-16T06:53:23.964Z,1005.3
2018-10-16T06:54:25.336Z,1005.3
2018-10-16T06:55:26.727Z,1005.3
2018-10-16T06:56:28.115Z,1005.3
2018-10-16T06:57:29.507Z,1005.4
2018-10-16T06:58:30.899Z,1005.4
2018-10-16T06:59:32.292Z,1005.4
2018-10-16T07:00:33.684Z,1005.4
2018-10-16T07:01:35.074Z,1005.4
2018-10-16T07:02:36.505Z,1005.4
2018-10-16T07:03:37.897Z,1005.4
2018-10-16T07:04:39.290Z,1005.4
2018-10-16T07:05:40.684Z,1005.4
2018-10-16T07:06:42.091Z,1005.5
2018-10-16T07:07:43.473Z,1005.4
2018-10-16T07:08:44.929Z,1005.5
2018-10-16T07:09:46.329Z,1005.4
2018-10-16T07:10:47.708Z,1005.4
2018-10-16T07:11:49.100Z,1005.4
2018-10-16T07:12:50.492Z,1005.4
2018-10-16T07:13:51.888Z,1005.4
2018-10-16T07:14:53.319Z,1005.4
2018-10-16T07:15:54.675Z,1005.5
2018-10-16T07:16:56.068Z,1005.5
2018-10-16T07:17:57.461Z,1005.5
2018-10-16T07:18:58.856Z,1005.5
2018-10-16T07:20:00.247Z,1005.5
2018-10-16T07:21:01.654Z,1005.5
2018-10-16T07:22:03.038Z,1005.5
2018-10-16T07:23:04.429Z,1005.5
2018-10-16T07:24:05.923Z,1005.5
2018-10-16T07:25:07.210Z,1005.6
2018-10-16T07:26:08.603Z,1005.6
2018-10-16T07:27:09.993Z,1005.5
2018-10-16T07:28:11.389Z,1005.6
2018-10-16T07:29:12.781Z,1005.5
2018-10-16T07:30:14.260Z,1005.6
2018-10-16T07:31:15.559Z,1005.6
2018-10-16T07:32:16.954Z,1005.5
2018-10-16T07:33:18.348Z,1005.5
2018-10-16T07:34:19.741Z,1005.5
2018-10-16T07:35:21.133Z,1005.5
2018-10-16T07:36:22.609Z,1005.5
2018-10-16T07:37:24.102Z,1005.5
2018-10-16T07:38:25.554Z,1005.5
2018-10-16T07:39:26.884Z,1005.5
2018-10-16T07:40:28.273Z,1005.5
2018-10-16T07:41:29.672Z,1005.5
2018-10-16T07:42:31.062Z,1005.5
2018-10-16T07:43:32.457Z,1005.5
2018-10-16T07:44:33.853Z,1005.5
2018-10-16T07:45:35.246Z,1005.5
2018-10-16T07:46:36.635Z,1005.5
2018-10-16T07:47:38.030Z,1005.5
2018-10-16T07:48:39.541Z,1005.5
2018-10-16T07:49:40.789Z,1005.6
2018-10-16T07:50:42.184Z,1005.5
2018-10-16T07:51:43.576Z,1005.6
2018-10-16T07:52:44.967Z,1005.5
2018-10-16T07:53:46.362Z,1005.6
2018-10-16T07:54:47.755Z,1005.6
2018-10-16T07:55:49.147Z,1005.6
2018-10-16T07:56:50.545Z,1005.6
2018-10-16T07:57:51.936Z,1005.6
2018-10-16T07:58:53.329Z,1005.6
2018-10-16T07:59:54.721Z,1005.6
2018-10-16T08:00:56.114Z,1005.7
2018-10-16T08:01:57.508Z,1005.7
2018-10-16T08:02:58.901Z,1005.7
2018-10-16T08:04:00.298Z,1005.7
2018-10-16T08:05:01.692Z,1005.7
2018-10-16T08:06:03.085Z,1005.7
2018-10-16T08:07:04.476Z,1005.7
2018-10-16T08:08:05.870Z,1005.7
2018-10-16T08:09:07.264Z,1005.7
2018-10-16T08:10:08.665Z,1005.7
2018-10-16T08:11:10.068Z,1005.8
2018-10-16T08:12:11.458Z,1005.7
2018-10-16T08:13:12.849Z,1005.7
2018-10-16T08:14:14.254Z,1005.7
2018-10-16T08:15:15.643Z,1005.7
2018-10-16T08:16:17.037Z,1005.8
2018-10-16T08:17:18.483Z,1005.8
2018-10-16T08:18:19.834Z,1005.8
2018-10-16T08:19:21.225Z,1005.8
2018-10-16T08:20:22.617Z,1005.8
2018-10-16T08:21:24.022Z,1005.8
2018-10-16T08:22:25.477Z,1005.9
2018-10-16T08:23:26.869Z,1005.9
2018-10-16T08:24:28.264Z,1005.9
2018-10-16T08:25:29.664Z,1005.9
2018-10-16T08:26:31.069Z,1005.9
2018-10-16T08:27:32.465Z,1006.0
2018-10-16T08:28:33.864Z,1006.0
2018-10-16T08:29:35.258Z,1006.0
2018-10-16T08:30:36.719Z,1005.9
2018-10-16T08:31:38.051Z,1006.0
2018-10-16T08:32:39.448Z,1006.0
2018-10-16T08:33:40.847Z,1005.9
2018-10-16T08:34:42.240Z,1005.9
2018-10-16T08:35:43.653Z,1006.0
2018-10-16T08:36:45.075Z,1005.9
2018-10-16T08:37:46.453Z,1006.0
2018-10-16T08:38:47.829Z,1005.9
2018-10-16T08:39:49.228Z,1005.9
2018-10-16T08:40:50.625Z,1005.9
2018-10-16T08:41:52.085Z,1005.9
2018-10-16T08:42:53.417Z,1005.9
2018-10-16T08:43:54.813Z,1005.9
2018-10-16T08:44:56.225Z,1005.9
2018-10-16T08:45:57.614Z,1005.9
2018-10-16T08:46:59.011Z,1005.8
2018-10-16T08:48:00.408Z,1005.9
2018-10-16T08:49:01.807Z,1005.9
2018-10-16T08:50:03.203Z,1005.8
2018-10-16T08:51:04.597Z,1005.8
2018-10-16T08:52:05.994Z,1005.9
2018-10-16T08:53:07.391Z,1005.9
2018-10-16T08:54:08.791Z,1005.8
2018-10-16T08:55:10.296Z,1005.9
2018-10-16T08:56:11.578Z,1005.9
2018-10-16T08:57:12.974Z,1005.9
2018-10-16T08:58:14.373Z,1005.9
2018-10-16T08:59:15.772Z,1005.9
2018-10-16T09:00:17.171Z,1005.9
2018-10-16T09:01:18.587Z,1005.8
2018-10-16T09:02:19.987Z,1005.8
2018-10-16T09:03:21.384Z,1005.8
2018-10-16T09:04:22.777Z,1005.8
2018-10-16T09:05:24.175Z,1005.9
2018-10-16T09:06:25.779Z,1005.9
2018-10-16T09:07:27.214Z,1005.9
2018-10-16T09:08:28.609Z,1005.9
2018-10-16T09:09:30.021Z,1005.9
2018-10-16T09:10:31.417Z,1005.9
2018-10-16T09:11:32.819Z,1005.9
2018-10-16T09:12:34.218Z,1005.9
2018-10-16T09:13:35.616Z,1005.9
2018-10-16T09:14:37.053Z,1005.9
2018-10-16T09:15:38.410Z,1005.9
2018-10-16T09:16:39.806Z,1005.9
2018-10-16T09:17:41.202Z,1005.9
2018-10-16T09:18:42.600Z,1005.9
2018-10-16T09:19:43.998Z,1006.0
2018-10-16T09:20:45.402Z,1006.0
2018-10-16T09:21:46.801Z,1006.0
2018-10-16T09:22:48.202Z,1006.0
2018-10-16T09:23:49.603Z,1006.0
2018-10-16T09:24:51.005Z,1006.0
2018-10-16T09:25:52.403Z,1006.0
2018-10-16T09:26:53.811Z,1006.0
2018-10-16T09:27:55.204Z,1006.0
2018-10-16T09:28:56.608Z,1006.0
2018-10-16T09:29:58.010Z,1005.9
2018-10-16T09:30:59.450Z,1006.0
2018-10-16T09:32:00.817Z,1006.0
2018-10-16T09:33:02.212Z,1006.0
2018-10-16T09:34:03.617Z,1006.0
2018-10-16T09:35:05.016Z,1006.0
2018-10-16T09:36:06.423Z,1006.1
2018-10-16T09:37:07.824Z,1006.0
2018-10-16T09:38:09.283Z,1006.0
2018-10-16T09:39:10.635Z,1006.0
2018-10-16T09:40:12.029Z,1006.0
2018-10-16T09:41:13.432Z,1006.0
2018-10-16T09:42:14.833Z,1006.0
2018-10-16T09:43:16.241Z,1006.0
2018-10-16T09:44:17.643Z,1006.0
2018-10-16T09:45:19.076Z,1006.1
2018-10-16T09:46:20.474Z,1006.1
2018-10-16T09:47:21.885Z,1006.0
2018-10-16T09:48:23.289Z,1006.0
2018-10-16T09:49:24.694Z,1006.0
2018-10-16T09:50:26.190Z,1006.1
2018-10-16T09:51:27.595Z,1006.1
2018-10-16T09:52:29.003Z,1006.1
2018-10-16T09:53:30.405Z,1006.0
2018-10-16T09:54:31.808Z,1006.0
2018-10-16T09:55:33.224Z,1006.0
2018-10-16T09:56:34.622Z,1006.1
2018-10-16T09:57:36.027Z,1006.0
2018-10-16T09:58:37.432Z,1006.0
2018-10-16T09:59:38.837Z,1006.0
2018-10-16T10:00:40.293Z,1006.0
2018-10-16T10:01:41.655Z,1006.0
2018-10-16T10:02:43.056Z,1006.0
2018-10-16T10:03:44.461Z,1006.0
2018-10-16T10:04:45.876Z,1006.0
2018-10-16T10:05:47.292Z,1006.0
2018-10-16T10:06:48.705Z,1006.0
2018-10-16T10:07:50.115Z,1006.0
2018-10-16T10:08:51.522Z,1006.0
2018-10-16T10:09:52.936Z,1005.9
2018-10-16T10:10:54.351Z,1006.0
2018-10-16T10:11:55.756Z,1006.0
2018-10-16T10:12:57.167Z,1005.9
2018-10-16T10:13:58.577Z,1006.0
2018-10-16T10:14:59.983Z,1005.9
2018-10-16T10:16:01.394Z,1005.9
2018-10-16T10:17:02.799Z,1005.9
2018-10-16T10:18:04.211Z,1005.9
2018-10-16T10:19:05.621Z,1005.9
2018-10-16T10:20:07.031Z,1005.9
2018-10-16T10:21:08.442Z,1005.9
2018-10-16T10:22:09.852Z,1005.9
2018-10-16T10:23:11.317Z,1005.9
2018-10-16T10:24:12.671Z,1005.9
2018-10-16T10:25:14.104Z,1005.9
2018-10-16T10:26:15.500Z,1005.9
2018-10-16T10:27:16.912Z,1005.9
2018-10-16T10:28:18.323Z,1006.0
2018-10-16T10:29:19.738Z,1005.9
2018-10-16T10:30:21.152Z,1005.9
2018-10-16T10:31:22.563Z,1006.0
2018-10-16T10:32:24.044Z,1005.9
2018-10-16T10:33:25.470Z,1006.0
2018-10-16T10:34:26.885Z,1005.9
2018-10-16T10:35:28.349Z,1005.9
2018-10-16T10:36:29.702Z,1005.9
2018-10-16T10:37:31.117Z,1005.9
2018-10-16T10:38:32.527Z,1005.9
2018-10-16T10:39:33.939Z,1005.9
2018-10-16T10:40:35.350Z,1005.9
2018-10-16T10:41:36.766Z,1005.9
2018-10-16T10:42:38.179Z,1005.9
2018-10-16T10:43:39.590Z,1005.9
2018-10-16T10:44:41.001Z,1005.8
2018-10-16T10:45:42.409Z,1005.8
2018-10-16T10:46:43.822Z,1005.8
2018-10-16T10:47:45.239Z,1005.8
2018-10-16T10:48:46.653Z,1005.8
2018-10-16T10:49:48.122Z,1005.8
2018-10-16T10:50:49.694Z,1005.8
2018-10-16T10:51:50.901Z,1005.7
2018-10-16T10:52:52.315Z,1005.7
2018-10-16T10:53:53.724Z,1005.8
2018-10-16T10:54:55.142Z,1005.7
2018-10-16T10:55:56.545Z,1005.7
2018-10-16T10:56:58.031Z,1005.7
2018-10-16T10:57:59.362Z,1005.7
2018-10-16T10:59:00.765Z,1005.7
2018-10-16T11:00:02.179Z,1005.7
2018-10-16T11:01:03.622Z,1005.7
2018-10-16T11:02:05.030Z,1005.6
2018-10-16T11:03:06.455Z,1005.6
2018-10-16T11:04:07.845Z,1005.6
2018-10-16T11:05:09.247Z,1005.6
2018-10-16T11:06:10.658Z,1005.6
2018-10-16T11:07:12.067Z,1005.6
2018-10-16T11:08:13.477Z,1005.6
2018-10-16T11:09:14.918Z,1005.6
2018-10-16T11:10:16.297Z,1005.6
2018-10-16T11:11:17.706Z,1005.6
2018-10-16T11:12:19.111Z,1005.7
2018-10-16T11:13:20.520Z,1005.7
2018-10-16T11:14:21.946Z,1005.7
2018-10-16T11:15:23.479Z,1005.7
2018-10-16T11:16:24.881Z,1005.7
2018-10-16T11:17:26.300Z,1005.6
2018-10-16T11:18:27.709Z,1005.6
2018-10-16T11:19:29.237Z,1005.6
2018-10-16T11:20:30.522Z,1005.6
2018-10-16T11:21:31.926Z,1005.5
2018-10-16T11:22:33.340Z,1005.5
2018-10-16T11:23:34.767Z,1005.6
2018-10-16T11:24:36.180Z,1005.6
2018-10-16T11:25:37.594Z,1005.6
2018-10-16T11:26:38.990Z,1005.5
2018-10-16T11:27:40.401Z,1005.6
2018-10-16T11:28:41.809Z,1005.6
2018-10-16T11:29:43.240Z,1005.6
2018-10-16T11:30:44.645Z,1005.6
2018-10-16T11:31:46.052Z,1005.6
2018-10-16T11:32:47.465Z,1005.6
2018-10-16T11:33:48.874Z,1005.6
2018-10-16T11:34:50.277Z,1005.6
2018-10-16T11:35:51.694Z,1005.6
2018-10-16T11:36:53.109Z,1005.6
2018-10-16T11:37:54.507Z,1005.6
2018-10-16T11:38:55.922Z,1005.5
2018-10-16T11:39:57.328Z,1005.6
2018-10-16T11:40:58.724Z,1005.5
2018-10-16T11:42:00.135Z,1005.5
2018-10-16T11:43:01.541Z,1005.5
2018-10-16T11:44:02.953Z,1005.5
2018-10-16T11:45:04.417Z,1005.5
2018-10-16T11:46:05.747Z,1005.5
2018-10-16T11:47:07.165Z,1005.5
2018-10-16T11:48:08.567Z,1005.5
2018-10-16T11:49:09.965Z,1005.5
2018-10-16T11:50:11.395Z,1005.5
2018-10-16T11:51:12.777Z,1005.5
2018-10-16T11:52:14.204Z,1005.5
2018-10-16T11:53:15.596Z,1005.5
2018-10-16T11:54:17.008Z,1005.5
2018-10-16T11:55:18.411Z,1005.5
2018-10-16T11:56:19.818Z,1005.6
2018-10-16T11:57:21.301Z,1005.5
2018-10-16T11:58:22.711Z,1005.5
2018-10-16T11:59:24.199Z,1005.5
2018-10-16T12:00:25.520Z,1005.6
2018-10-16T12:01:26.922Z,1005.6
2018-10-16T12:02:28.341Z,1005.6
2018-10-16T12:03:29.743Z,1005.6
2018-10-16T12:04:31.144Z,1005.6
2018-10-16T12:05:32.547Z,1005.5
2018-10-16T12:06:33.954Z,1005.5
2018-10-16T12:07:35.359Z,1005.5
2018-10-16T12:08:36.767Z,1005.5
2018-10-16T12:09:38.166Z,1005.5
2018-10-16T12:10:39.628Z,1005.5
2018-10-16T12:11:40.972Z,1005.5
2018-10-16T12:12:42.377Z,1005.5
2018-10-16T12:13:43.785Z,1005.5
2018-10-16T12:14:45.192Z,1005.5
2018-10-16T12:15:46.598Z,1005.5
2018-10-16T12:16:48.018Z,1005.4
2018-10-16T12:17:49.413Z,1005.4
2018-10-16T12:18:50.865Z,1005.5
2018-10-16T12:19:52.244Z,1005.5
2018-10-16T12:20:53.653Z,1005.5
2018-10-16T12:21:55.270Z,1005.5
2018-10-16T12:22:56.880Z,1005.5
2018-10-16T12:23:58.317Z,1005.5
2018-10-16T12:24:59.728Z,1005.5
2018-10-16T12:26:01.099Z,1005.5
2018-10-16T12:27:02.547Z,1005.5
2018-10-16T12:28:06.681Z,1005.5
2018-10-16T12:29:08.173Z,1005.5
2018-10-16T12:30:09.489Z,1005.5
2018-10-16T12:31:10.990Z,1005.5
2018-10-16T12:32:12.332Z,1005.5
2018-10-16T12:33:16.439Z,1005.5
2018-10-16T12:34:17.848Z,1005.5
2018-10-16T12:35:19.256Z,1005.5
2018-10-16T12:36:20.661Z,1005.5
2018-10-16T12:37:22.064Z,1005.5
2018-10-16T12:38:26.248Z,1005.5
2018-10-16T12:39:26.661Z,1005.5
2018-10-16T12:40:28.061Z,1005.4
2018-10-16T12:41:29.462Z,1005.5
2018-10-16T12:42:30.868Z,1005.5
2018-10-16T12:43:32.377Z,1005.4
2018-10-16T12:44:33.682Z,1005.4
2018-10-16T12:45:36.753Z,1005.4
2018-10-16T12:46:38.155Z,1005.5
2018-10-16T12:47:39.563Z,1005.5